LFBA/AGF METAR and TAF weather

Enter ICAO airport designator
Station Type Date Time Source
LFBA METAR 2019/06/27 08:30 UTC NOAA

LFBA 270830Z AUTO VRB03KT CAVOK 28/19 Q1019 NOSIG


Station Type Date Time Source
LFBA Decoded METAR 2019/06/27 08:30 UTC NOAA

Agen, France (LFBA) 44-11N 000-36E 60M
Jun 27, 2019 - 04:30 AM EDT / 2019.06.27 0830 UTC
Wind: Variable at 3 MPH (3 KT):0
Visibility: greater than 7 mile(s):0
Temperature: 82 F (28 C)
Dew Point: 66 F (19 C)
Relative Humidity: 58%
Pressure (altimeter): 30.09 in. Hg (1019 hPa)
ob: LFBA 270830Z AUTO VRB03KT CAVOK 28/19 Q1019 NOSIG
cycle: 8

Station Type Date Time Source
LFBA TAF 2014/12/22 20:03 UTC NOAA

TAF
AMD TAF
AMD LFBA 222037Z 2220/2224 12007KT 0400 FG VV///
TEMPO 2220/2224 0100 PROB30
TEMPO 2222/2224 FZFG

Example: see airport list